EPWR Airport Information

Runway Information
Runway 12 Length 8202 ft width 197 ft
Elevation 404 ft Threshold 0 ft Heading 116
Runway 30 Length 8202 ft Width 197 ft
Elevation 400 ft Threshold 0 ft Heading 296
Airport Frequencies
Type TWR Name WROCLAW TW Frequency 127.225 MHZ
Airport Navaids
Type NDB Name Wroclaw Frequency 255 KHZ
Type NDB Name Wroclaw Frequency 525 KHZ
Type VOR-DME Name Trzebnica Frequency 113600 KHZ
Airport Weather Information & NOTAM
ADDS - METARS form results

(0723 UTC 25 September 2021)
Data provider http://aviationweather.gov/metar/data/
 
METAR text: EPWR 250700Z 24006KT CAVOK 17/13 Q1016
Conditions at: EPWR (WROCLAW/STRACHOW, PL) observed 0700 UTC 25 September 2021
Temperature: 17.0°C (63°F)
Dewpoint: 13.0°C (55°F) [RH = 77%]
Pressure (altimeter): 30.00 inches Hg (1016.0 mb)
Winds: from the WSW (240 degrees) at 7 MPH (6 knots; 3.1 m/s)
Visibility: 6 or more miles (10+ km)
Ceiling: ceiling and visibility are OK
Clouds: unknown
Weather: no significant weather observed at this time

METAR text: EPWR 250630Z 23007KT 170V250 CAVOK 16/13 Q1016
Conditions at: EPWR (WROCLAW/STRACHOW, PL) observed 0630 UTC 25 September 2021
Temperature: 16.0°C (61°F)
Dewpoint: 13.0°C (55°F) [RH = 82%]
Pressure (altimeter): 30.00 inches Hg (1016.0 mb)
Winds: from the SW (230 degrees) at 8 MPH (7 knots; 3.6 m/s)
Visibility: 6 or more miles (10+ km)
Ceiling: ceiling and visibility are OK
Clouds: unknown
Weather: no significant weather observed at this time

Forecast for: EPWR (WROCLAW/STRACHOW, PL)
Text: TAF EPWR 250530Z 2506/2606 24010KT 9999 BKN040
Forecast period: 0600 to 1800 UTC 25 September 2021
Forecast type: FROM: standard forecast or significant change
Winds: from the WSW (240 degrees) at 12 MPH (10 knots; 5.1 m/s)
Visibility: 6 or more miles (10+ km)
Ceiling: 4000 feet AGL
Clouds: broken clouds at 4000 feet AGL
Weather: no significant weather forecast for this period
Text: BECMG 2518/2520 07005KT
Forecast period: 1800 UTC 25 September 2021 to 0600 UTC 26 September 2021
Forecast type: BECOMING: Conditions expected to become as follows by 2000 UTC 25 September 2021
Winds: from the ENE (70 degrees) at 6 MPH (5 knots; 2.6 m/s)
Visibility: 6 or more miles (10+ km)
Ceiling: 4000 feet AGL
Clouds: broken clouds at 4000 feet AGL
Weather: no significant weather forecast for this period